METAR Data
IDs: Format: Raw Decoded Include TAF

Data at: 0234 UTC 25 Jan 2020

PAVA 250228Z AUTO 36026KT 3/4SM -SN CLR M20/M23 A3018 RMK AO2 PK WND 36029/0228 P0000 FZRANO
PAVA 250156Z AUTO 01025KT 1 1/4SM -SN CLR M20/M23 A3019 RMK AO2 PK WND 01028/0155 SNB50 SLP228 P0000 T12001228 FZRANO
PAVA 250145Z AUTO 36023KT 1 3/4SM HZ CLR M19/M23 A3019 RMK AO2 PK WND 36026/0145 PRESFR FZRANO
PAVA 250056Z AUTO 05010KT 10SM CLR M19/M23 A3021 RMK AO2 PK WND 02026/0037 SLP237 T11941228 FZRANO
PAVA 250009Z AUTO 02021KT 4SM HZ CLR M19/M23 A3020 RMK AO2 FZRANO
PAVA 242356Z AUTO 02021KT 2 1/2SM HZ CLR M19/M22 A3020 RMK AO2 PK WND 02026/2351 VIS 1 1/2V4 SLP233 60000 T11941222 11194 21217 58012 FZRANO
PAVA 242342Z AUTO 02020KT 2SM HZ CLR M20/M23 A3020 RMK AO2 FZRANO
PAVA 242332Z AUTO 02019KT 3SM HZ CLR M20/M23 A3020 RMK AO2 FZRANO
PAVA 242321Z AUTO 03018KT 2 1/2SM HZ CLR M20/M23 A3021 RMK AO2 FZRANO
PAVA 242256Z AUTO 02020KT 3SM HZ CLR M20/M23 A3021 RMK AO2 SLP236 T12001228 FZRANO
PAVA 242156Z AUTO 01014KT 10SM CLR M21/M23 A3023 RMK AO2 SLP242 T12061233 FZRANO
PAVA 242056Z AUTO 06008KT 10SM CLR M21/M24 A3024 RMK AO2 SLP244 60000 T12061239 53010 FZRANO
PAVA 241956Z AUTO 36022KT 7SM CLR M21/M24 A3021 RMK AO2 PK WND 01027/1919 SLP235 T12111239 FZRANO
PAVA 241856Z AUTO 02020KT 10SM CLR M22/M24 A3022 RMK AO2 PK WND 02029/1810 SNB03E24 SLP239 P0000 T12171239 FZRANO
PAVA 241756Z AUTO 02025KT 5SM BR CLR M21/M23 A3021 RMK AO2 PK WND 02031/1658 SNE14 SLP235 P0000 60000 T12111233 11183 21217 55013 FZRANO
PAVA 241709Z AUTO 02023KT 3SM -SN CLR M21/M24 A3021 RMK AO2 PK WND 02031/1658 P0000 FZRANO
PAVA 241656Z AUTO 02030KT 1 3/4SM -SN CLR M21/M23 A3020 RMK AO2 PK WND 03034/1645 WSHFT 1617 VIS 1V3 SNB39 SLP233 P0000 T12061233 FZRANO
PAVA 241643Z AUTO 04027G32KT 1 3/4SM -SN CLR M21/M23 A3021 RMK AO2 PK WND 04032/1641 WSHFT 1617 VIS 1V4 SNB39 P0000 FZRANO
PAVA 241637Z AUTO 05019G23KT 5SM HZ CLR M21/M23 A3022 RMK AO2 PK WND 03026/1624 WSHFT 1617 FZRANO
PAVA 241556Z AUTO 11006KT 10SM CLR M21/M24 A3024 RMK AO2 SLP245 T12111239 FZRANO
PAVA 241456Z AUTO VRB04KT 10SM CLR M20/M22 A3025 RMK AO2 SLP247 T12001222 53003 FZRANO
PAVA 241356Z AUTO 36015KT 7SM SCT011 M19/M21 A3023 RMK AO2 WSHFT 1338 SLP241 T11891206 FZRANO
PAVA 241352Z AUTO 01014KT 8SM SCT011 M19/M21 A3022 RMK AO2 WSHFT 1338 FZRANO
PAVA 241314Z AUTO 12005KT 10SM OVC013 M18/M21 A3023 RMK AO2 FZRANO
PAVA 241256Z AUTO 15007KT 10SM OVC015 M18/M21 A3023 RMK AO2 SLP244 T11831206 FZRANO
PAVA 241231Z AUTO 15012KT 10SM BKN017 M19/M22 A3023 RMK AO2 FZRANO
PAVA 241156Z AUTO 10008KT 10SM CLR M19/M23 A3024 RMK AO2 SLP244 60000 T11891228 11161 21189 50003 FZRANO
PAVA 241056Z AUTO 11008KT 10SM CLR M17/M20 A3024 RMK AO2 SNB03E32 SLP247 P0000 T11721200 FZRANO
PAVA 241031Z AUTO 08007G14KT 9SM -SN FEW005 M17/M18 A3024 RMK AO2 SNB03 P0000 FZRANO
PAVA 241021Z AUTO 06011KT 020V100 3SM -SN BR FEW005 BKN013 M17/M18 A3024 RMK AO2 SNB03 P0000 FZRANO
PAVA 241005Z AUTO 02008KT 7SM -SN BKN013 M16/M18 A3024 RMK AO2 SNB03 P0000 FZRANO
PAVA 240956Z AUTO 05007G14KT 360V080 7SM SCT013 M17/M18 A3024 RMK AO2 SNB15E55 SLP246 P0000 T11671183 FZRANO
PAVA 240938Z AUTO 36014G25KT 5SM -SN BR CLR M17/M18 A3023 RMK AO2 SNB15 P0000 FZRANO
PAVA 240927Z AUTO 02018G24KT 2 1/2SM -SN BR CLR M17/M18 A3024 RMK AO2 VIS 1 1/2V4 SNB15 P0000 FZRANO
PAVA 240856Z AUTO 01016KT 10SM CLR M17/M19 A3023 RMK AO2 SLP241 T11721189 53002 FZRANO
PAVA 240756Z AUTO 36012KT 10SM CLR M18/M20 A3023 RMK AO2 SLP241 T11781200 411171194 FZRANO
PAVA 240656Z AUTO 01010KT 10SM CLR M18/M21 A3022 RMK AO2 SLP239 T11831206 FZRANO
PAVA 240556Z AUTO 03009KT 10SM CLR M17/M19 A3022 RMK AO2 SLP240 60000 T11721194 11128 21178 50002 FZRANO
PAVA 240456Z AUTO 01008KT 10SM FEW013 M17/M19 A3022 RMK AO2 SNE24 SLP240 P0000 T11721194 FZRANO
PAVA 240356Z AUTO 35011KT 9SM -SN FEW015 M17/M19 A3023 RMK AO2 SLP241 P0000 T11721189 FZRANO
PAVA 240256Z AUTO 36013KT 6SM -SN BR FEW016 M17/M19 A3022 RMK AO2 SLP238 P0000 60000 T11721194 53007 FZRANO
PAVA 240156Z AUTO 36014KT 9SM -SN CLR M17/M19 A3021 RMK AO2 SNB04 SLP234 P0000 T11671189 FZRANO
PAVA 240056Z AUTO 35010KT 9SM FEW014 M16/M18 A3020 RMK AO2 SNB2358E17B34E56 SLP232 P0000 T11561178 FZRANO
PAVA 240047Z AUTO 00000KT 8SM -SN SCT014 M16/M18 A3020 RMK AO2 SNB2358E17B34 P0000 FZRANO
PAVA 240038Z AUTO 36003KT 8SM -SN BKN014 M15/M18 A3020 RMK AO2 SNB2358E17B34 P0000 FZRANO
PAVA 240009Z AUTO 01010KT 3SM -SN SCT012 SCT017 M13/M17 A3019 RMK AO2 SNB2358 P0000 FZRANO
PAVA 232356Z AUTO VRB03KT 9SM BKN011 OVC018 M13/M17 A3020 RMK AO2 SNB13E34 SLP231 P0000 60000 T11331167 11117 21167 51007 FZRANO
PAVA 232319Z AUTO 02005KT 6SM -SN BKN011 M12/M16 A3020 RMK AO2 SNB13 P0000 FZRANO
PAVA 232256Z AUTO 31006KT 10SM FEW011 M13/M16 A3020 RMK AO2 SLP231 T11331161 FZRANO
PAVA 232246Z AUTO 32005KT 10SM SCT011 M13/M17 A3020 RMK AO2 FZRANO
PAVA 232231Z AUTO 31005KT 10SM BKN011 M13/M16 A3019 RMK AO2 FZRANO
PAVA 232156Z AUTO 32012KT 9SM CLR M14/M17 A3019 RMK AO2 SNE49 SLP229 P0000 T11441167 FZRANO
PAVA 232056Z AUTO 34011KT 7SM -SN CLR M16/M18 A3018 RMK AO2 SNE09B53 SLP224 P0000 60000 T11611178 51019 FZRANO
PAVA 232010Z AUTO 33010KT 9SM FEW019 SCT028 M16/M18 A3017 RMK AO2 SNE09 P0000 FZRANO
PAVA 231956Z AUTO 32008KT 9SM -SN BKN017 BKN028 M16/M17 A3017 RMK AO2 SLP222 P0000 T11561172 FZRANO
PAVA 231949Z AUTO 34008KT 7SM -SN OVC017 M15/M17 A3017 RMK AO2 P0000 FZRANO
PAVA 231931Z AUTO 36009KT 2SM -SN BR OVC019 M14/M16 A3016 RMK AO2 VIS 1 1/2V4 P0000 FZRANO
PAVA 231856Z AUTO 34007KT 5SM -SN BR OVC019 M14/M16 A3013 RMK AO2 SLP210 P0000 T11441161 FZRANO
PAVA 231756Z AUTO 35009KT 5SM -SN BR OVC019 M15/M17 A3012 RMK AO2 SLP205 P0000 60000 T11501172 11150 21194 50005 FZRANO
PAVA 231656Z AUTO 30009KT 9SM -SN OVC021 M17/M19 A3012 RMK AO2 SNB24 SLP205 P0000 T11671189 FZRANO
PAVA 231604Z AUTO 33005KT 10SM BKN019 M17/M19 A3012 RMK AO2 FZRANO
PAVA 231556Z AUTO 33006KT 10SM SCT019 M18/M20 A3012 RMK AO2 SLP205 T11781200 FZRANO
PAVA 231456Z AUTO 33011KT 10SM FEW019 M18/M19 A3011 RMK AO2 SNB29E39 SLP200 P0000 60000 T11781194 53015 FZRANO